Weather at Aberdeen Dyce Airport

Public forecast

Using degrees Celsius for public forecast. Weather courtesy of forecast.io.

Current aviation weather report (METAR) for Aberdeen Dyce Airport

2024/02/24 01:50 (retrieved 27 minutes ago)

EGPD 240150Z AUTO VRB02KT 9999 NCD M01/M03 Q0986

Closest aviation forecast (TAF) to Aberdeen Dyce Airport

Closest forecast is Leeds Bradford Airport, 201.1 nm (372.5 km) S.

2024/02/24 18:33 (retrieved 0 seconds ago)

TAF EGNM 240026Z 2318/2418 CNL